sensor_id;sensor_type;location;lat;lon;timestamp;pressure;altitude;pressure_sealevel;temperature;humidity
5755;BME280;2902;42.130;24.732;2023-09-07T00:01:50;99924.16;;;23.46;80.19
5755;BME280;2902;42.130;24.732;2023-09-07T00:04:18;99919.00;;;23.45;80.14
5755;BME280;2902;42.130;24.732;2023-09-07T00:06:44;99924.44;;;23.45;79.73
5755;BME280;2902;42.130;24.732;2023-09-07T00:09:13;99924.16;;;23.41;79.47
5755;BME280;2902;42.130;24.732;2023-09-07T00:11:41;99918.75;;;23.41;79.43
5755;BME280;2902;42.130;24.732;2023-09-07T00:14:08;99918.75;;;23.41;78.98
5755;BME280;2902;42.130;24.732;2023-09-07T00:16:34;99920.09;;;23.44;78.96
5755;BME280;2902;42.130;24.732;2023-09-07T00:19:03;99919.28;;;23.48;79.50
5755;BME280;2902;42.130;24.732;2023-09-07T00:21:30;99928.50;;;23.52;79.47
5755;BME280;2902;42.130;24.732;2023-09-07T00:23:56;99935.00;;;23.51;79.58
5755;BME280;2902;42.130;24.732;2023-09-07T00:26:24;99921.44;;;23.51;80.35
5755;BME280;2902;42.130;24.732;2023-09-07T00:28:51;99922.81;;;23.54;79.15
5755;BME280;2902;42.130;24.732;2023-09-07T00:31:18;99929.06;;;23.54;79.79
5755;BME280;2902;42.130;24.732;2023-09-07T00:33:44;99929.31;;;23.58;79.32
5755;BME280;2902;42.130;24.732;2023-09-07T00:36:11;99920.09;;;23.54;81.51
5755;BME280;2902;42.130;24.732;2023-09-07T00:38:37;99918.22;;;23.54;81.23
5755;BME280;2902;42.130;24.732;2023-09-07T00:41:04;99921.97;;;23.53;81.13
5755;BME280;2902;42.130;24.732;2023-09-07T00:43:32;99917.13;;;23.55;81.28
5755;BME280;2902;42.130;24.732;2023-09-07T00:45:59;99910.59;;;23.51;83.78
5755;BME280;2902;42.130;24.732;2023-09-07T00:48:26;99913.31;;;23.51;84.40
5755;BME280;2902;42.130;24.732;2023-09-07T00:50:53;99921.44;;;23.46;84.22
5755;BME280;2902;42.130;24.732;2023-09-07T00:53:20;99921.16;;;23.43;85.11
5755;BME280;2902;42.130;24.732;2023-09-07T00:55:47;99919.53;;;23.42;85.54
5755;BME280;2902;42.130;24.732;2023-09-07T00:58:14;99919.81;;;23.40;86.05
5755;BME280;2902;42.130;24.732;2023-09-07T01:00:42;99919.81;;;23.40;86.73
5755;BME280;2902;42.130;24.732;2023-09-07T01:03:09;99914.94;;;23.42;87.15
5755;BME280;2902;42.130;24.732;2023-09-07T01:05:42;99913.31;;;23.41;87.45
5755;BME280;2902;42.130;24.732;2023-09-07T01:08:14;99912.22;;;23.37;87.89
5755;BME280;2902;42.130;24.732;2023-09-07T01:10:42;99904.06;;;23.32;88.96
5755;BME280;2902;42.130;24.732;2023-09-07T01:13:08;99901.59;;;23.31;89.21
5755;BME280;2902;42.130;24.732;2023-09-07T01:15:36;99902.16;;;23.28;89.61
5755;BME280;2902;42.130;24.732;2023-09-07T01:18:06;99907.53;;;23.18;90.40
5755;BME280;2902;42.130;24.732;2023-09-07T01:20:34;99905.06;;;23.11;90.88
5755;BME280;2902;42.130;24.732;2023-09-07T01:23:04;99903.44;;;23.10;91.22
5755;BME280;2902;42.130;24.732;2023-09-07T01:25:31;99902.34;;;23.11;91.49
5755;BME280;2902;42.130;24.732;2023-09-07T01:27:58;99898.53;;;23.02;92.40
5755;BME280;2902;42.130;24.732;2023-09-07T01:30:27;99904.22;;;22.96;92.56
5755;BME280;2902;42.130;24.732;2023-09-07T01:32:54;99900.72;;;23.00;93.31
5755;BME280;2902;42.130;24.732;2023-09-07T01:35:21;99907.75;;;23.01;92.88
5755;BME280;2902;42.130;24.732;2023-09-07T01:37:49;99907.75;;;23.01;93.67
5755;BME280;2902;42.130;24.732;2023-09-07T01:40:17;99906.13;;;23.00;93.24
5755;BME280;2902;42.130;24.732;2023-09-07T01:42:43;99900.94;;;22.94;93.86
5755;BME280;2902;42.130;24.732;2023-09-07T01:45:10;99905.00;;;22.91;94.00
5755;BME280;2902;42.130;24.732;2023-09-07T01:47:37;99907.72;;;22.91;94.68
5755;BME280;2902;42.130;24.732;2023-09-07T01:50:04;99912.06;;;22.92;94.63
5755;BME280;2902;42.130;24.732;2023-09-07T01:52:31;99907.72;;;22.91;94.58
5755;BME280;2902;42.130;24.732;2023-09-07T01:54:58;99912.09;;;22.97;94.66
5755;BME280;2902;42.130;24.732;2023-09-07T01:57:26;99909.91;;;22.99;94.78
5755;BME280;2902;42.130;24.732;2023-09-07T01:59:52;99907.44;;;22.93;94.76
5755;BME280;2902;42.130;24.732;2023-09-07T02:02:19;99904.47;;;22.94;94.16
5755;BME280;2902;42.130;24.732;2023-09-07T02:04:46;99911.56;;;23.00;94.44
5755;BME280;2902;42.130;24.732;2023-09-07T02:07:12;99906.16;;;23.05;94.08
5755;BME280;2902;42.130;24.732;2023-09-07T02:09:40;99908.31;;;23.08;93.90
5755;BME280;2902;42.130;24.732;2023-09-07T02:12:06;99908.31;;;23.08;93.99
5755;BME280;2902;42.130;24.732;2023-09-07T02:14:34;99909.41;;;23.12;93.66
5755;BME280;2902;42.130;24.732;2023-09-07T02:17:01;99915.66;;;23.13;93.34
5755;BME280;2902;42.130;24.732;2023-09-07T02:19:28;99915.91;;;23.16;93.01
5755;BME280;2902;42.130;24.732;2023-09-07T02:21:54;99908.88;;;23.10;92.48
5755;BME280;2902;42.130;24.732;2023-09-07T02:24:21;99914.81;;;23.12;92.27
5755;BME280;2902;42.130;24.732;2023-09-07T02:26:48;99920.53;;;23.16;92.83
5755;BME280;2902;42.130;24.732;2023-09-07T02:29:15;99924.03;;;23.11;93.03
5755;BME280;2902;42.130;24.732;2023-09-07T02:31:43;99923.50;;;23.09;92.24
5755;BME280;2902;42.130;24.732;2023-09-07T02:34:10;99920.81;;;23.09;92.72
5755;BME280;2902;42.130;24.732;2023-09-07T02:36:37;99917.00;;;23.10;92.95
5755;BME280;2902;42.130;24.732;2023-09-07T02:39:03;99917.81;;;23.11;92.24
5755;BME280;2902;42.130;24.732;2023-09-07T02:41:31;99911.06;;;23.13;92.75
5755;BME280;2902;42.130;24.732;2023-09-07T02:43:58;99911.56;;;23.10;92.95
5755;BME280;2902;42.130;24.732;2023-09-07T02:46:25;99907.75;;;23.01;92.95
5755;BME280;2902;42.130;24.732;2023-09-07T02:48:53;99907.44;;;22.88;94.58
5755;BME280;2902;42.130;24.732;2023-09-07T02:51:22;99899.00;;;22.79;95.49
5755;BME280;2902;42.130;24.732;2023-09-07T02:53:49;99904.41;;;22.74;95.18
5755;BME280;2902;42.130;24.732;2023-09-07T02:56:15;99902.78;;;22.73;96.40
5755;BME280;2902;42.130;24.732;2023-09-07T02:58:42;99913.63;;;22.73;95.46
5755;BME280;2902;42.130;24.732;2023-09-07T03:01:10;99914.13;;;22.65;95.59
5755;BME280;2902;42.130;24.732;2023-09-07T03:03:38;99915.72;;;22.61;95.94
5755;BME280;2902;42.130;24.732;2023-09-07T03:06:12;99914.09;;;22.60;95.82
5755;BME280;2902;42.130;24.732;2023-09-07T03:08:39;99905.41;;;22.58;96.15
5755;BME280;2902;42.130;24.732;2023-09-07T03:11:07;99914.88;;;22.51;96.95
5755;BME280;2902;42.130;24.732;2023-09-07T03:13:33;99916.47;;;22.47;96.53
5755;BME280;2902;42.130;24.732;2023-09-07T03:16:02;99918.03;;;22.43;96.51
5755;BME280;2902;42.130;24.732;2023-09-07T03:18:30;99925.88;;;22.39;97.09
5755;BME280;2902;42.130;24.732;2023-09-07T03:20:59;99922.63;;;22.42;98.36
5755;BME280;2902;42.130;24.732;2023-09-07T03:23:28;99923.19;;;22.44;98.42
5755;BME280;2902;42.130;24.732;2023-09-07T03:25:56;99925.34;;;22.42;97.79
5755;BME280;2902;42.130;24.732;2023-09-07T03:28:22;99921.06;;;22.46;97.50
5755;BME280;2902;42.130;24.732;2023-09-07T03:30:49;99925.91;;;22.44;96.46
5755;BME280;2902;42.130;24.732;2023-09-07T03:33:16;99923.44;;;22.38;97.18
5755;BME280;2902;42.130;24.732;2023-09-07T03:35:42;99927.53;;;22.45;99.34
5755;BME280;2902;42.130;24.732;2023-09-07T03:38:09;99927.06;;;22.53;99.08
5755;BME280;2902;42.130;24.732;2023-09-07T03:40:37;99934.66;;;22.56;97.08
5755;BME280;2902;42.130;24.732;2023-09-07T03:43:04;99929.75;;;22.53;96.74
5755;BME280;2902;42.130;24.732;2023-09-07T03:45:30;99936.84;;;22.59;97.16
5755;BME280;2902;42.130;24.732;2023-09-07T03:47:57;99941.19;;;22.60;96.23
5755;BME280;2902;42.130;24.732;2023-09-07T03:50:24;99940.88;;;22.57;96.29
5755;BME280;2902;42.130;24.732;2023-09-07T03:52:51;99940.63;;;22.58;96.78
5755;BME280;2902;42.130;24.732;2023-09-07T03:55:17;99942.28;;;22.59;97.80
5755;BME280;2902;42.130;24.732;2023-09-07T03:57:45;99943.91;;;22.60;96.06
5755;BME280;2902;42.130;24.732;2023-09-07T04:00:13;99941.72;;;22.62;97.22
5755;BME280;2902;42.130;24.732;2023-09-07T04:02:41;99951.50;;;22.63;96.06
5755;BME280;2902;42.130;24.732;2023-09-07T04:05:08;99945.03;;;22.69;96.82
5755;BME280;2902;42.130;24.732;2023-09-07T04:07:36;99942.59;;;22.73;95.09
5755;BME280;2902;42.130;24.732;2023-09-07T04:10:03;99948.84;;;22.73;94.93
5755;BME280;2902;42.130;24.732;2023-09-07T04:12:30;99951.53;;;22.73;95.76
5755;BME280;2902;42.130;24.732;2023-09-07T04:14:58;99953.50;;;22.83;96.38
5755;BME280;2902;42.130;24.732;2023-09-07T04:17:24;99948.91;;;22.93;94.21
5755;BME280;2902;42.130;24.732;2023-09-07T04:19:51;99952.25;;;23.15;94.04
5755;BME280;2902;42.130;24.732;2023-09-07T04:22:18;99954.50;;;23.33;92.11
5755;BME280;2902;42.130;24.732;2023-09-07T04:24:47;99953.47;;;23.59;90.41
5755;BME280;2902;42.130;24.732;2023-09-07T04:27:13;99956.19;;;23.89;87.72
5755;BME280;2902;42.130;24.732;2023-09-07T04:29:40;99961.91;;;24.08;87.03
5755;BME280;2902;42.130;24.732;2023-09-07T04:32:08;99957.03;;;24.35;88.26
5755;BME280;2902;42.130;24.732;2023-09-07T04:34:35;99952.34;;;24.55;86.46
5755;BME280;2902;42.130;24.732;2023-09-07T04:37:01;99966.19;;;24.79;83.12
5755;BME280;2902;42.130;24.732;2023-09-07T04:39:28;99965.31;;;24.93;83.96
5755;BME280;2902;42.130;24.732;2023-09-07T04:41:55;99975.22;;;25.23;83.42
5755;BME280;2902;42.130;24.732;2023-09-07T04:44:21;99980.28;;;25.50;82.00
5755;BME280;2902;42.130;24.732;2023-09-07T04:46:48;99978.59;;;25.59;81.25
5755;BME280;2902;42.130;24.732;2023-09-07T04:49:16;99985.03;;;25.73;79.67
5755;BME280;2902;42.130;24.732;2023-09-07T04:51:43;99979.88;;;25.71;78.25
5755;BME280;2902;42.130;24.732;2023-09-07T04:54:10;99981.16;;;25.84;78.71
5755;BME280;2902;42.130;24.732;2023-09-07T04:56:36;99989.22;;;25.99;77.76
5755;BME280;2902;42.130;24.732;2023-09-07T04:59:03;99995.72;;;26.03;76.97
5755;BME280;2902;42.130;24.732;2023-09-07T05:01:30;99989.81;;;25.96;76.14
5755;BME280;2902;42.130;24.732;2023-09-07T05:03:57;99989.97;;;25.66;77.65
5755;BME280;2902;42.130;24.732;2023-09-07T05:06:25;99989.03;;;25.47;79.24
5755;BME280;2902;42.130;24.732;2023-09-07T05:08:52;99985.22;;;25.43;80.26
5755;BME280;2902;42.130;24.732;2023-09-07T05:11:19;99987.84;;;25.58;79.00
5755;BME280;2902;42.130;24.732;2023-09-07T05:13:45;99987.28;;;25.61;78.74
5755;BME280;2902;42.130;24.732;2023-09-07T05:16:12;99984.34;;;25.52;79.00
5755;BME280;2902;42.130;24.732;2023-09-07T05:18:40;99986.03;;;25.43;79.67
5755;BME280;2902;42.130;24.732;2023-09-07T05:21:11;99994.38;;;25.57;77.03
5755;BME280;2902;42.130;24.732;2023-09-07T05:23:40;99985.66;;;25.60;77.42
5755;BME280;2902;42.130;24.732;2023-09-07T05:26:07;99985.72;;;25.50;79.26
5755;BME280;2902;42.130;24.732;2023-09-07T05:28:33;99992.09;;;25.74;77.29
5755;BME280;2902;42.130;24.732;2023-09-07T05:31:00;99999.44;;;26.12;75.45
5755;BME280;2902;42.130;24.732;2023-09-07T05:33:26;100008.50;;;26.69;72.97
5755;BME280;2902;42.130;24.732;2023-09-07T05:35:53;100010.31;;;27.26;70.66
5755;BME280;2902;42.130;24.732;2023-09-07T05:38:20;100003.56;;;27.79;68.53
5755;BME280;2902;42.130;24.732;2023-09-07T05:40:48;100003.38;;;28.26;67.37
5755;BME280;2902;42.130;24.732;2023-09-07T05:43:19;99992.09;;;28.14;66.32
5755;BME280;2902;42.130;24.732;2023-09-07T05:45:46;99999.03;;;28.06;66.72
5755;BME280;2902;42.130;24.732;2023-09-07T05:48:12;100002.09;;;28.05;67.06
5755;BME280;2902;42.130;24.732;2023-09-07T05:50:41;99996.78;;;27.95;67.30
5755;BME280;2902;42.130;24.732;2023-09-07T05:53:08;99991.66;;;28.07;66.51
5755;BME280;2902;42.130;24.732;2023-09-07T05:55:35;99997.91;;;28.44;65.96
5755;BME280;2902;42.130;24.732;2023-09-07T05:58:05;100000.06;;;28.88;64.45
5755;BME280;2902;42.130;24.732;2023-09-07T06:00:32;100001.09;;;28.92;63.17
5755;BME280;2902;42.130;24.732;2023-09-07T06:03:00;100009.22;;;29.10;63.08
5755;BME280;2902;42.130;24.732;2023-09-07T06:05:27;99999.03;;;29.38;62.54
5755;BME280;2902;42.130;24.732;2023-09-07T06:07:54;100002.38;;;29.62;60.92
5755;BME280;2902;42.130;24.732;2023-09-07T06:10:20;100007.13;;;29.70;60.47
5755;BME280;2902;42.130;24.732;2023-09-07T06:12:47;100011.09;;;30.00;59.12
5755;BME280;2902;42.130;24.732;2023-09-07T06:15:16;100019.28;;;30.35;57.93
5755;BME280;2902;42.130;24.732;2023-09-07T06:17:43;100027.31;;;30.62;56.95
5755;BME280;2902;42.130;24.732;2023-09-07T06:20:11;100025.88;;;30.87;56.06
5755;BME280;2902;42.130;24.732;2023-09-07T06:22:38;100027.31;;;30.62;57.46
5755;BME280;2902;42.130;24.732;2023-09-07T06:25:05;100033.31;;;30.64;56.82
5755;BME280;2902;42.130;24.732;2023-09-07T06:27:31;100031.44;;;30.73;56.07
5755;BME280;2902;42.130;24.732;2023-09-07T06:29:58;100034.38;;;30.55;56.52
5755;BME280;2902;42.130;24.732;2023-09-07T06:32:26;100024.00;;;30.21;58.19
5755;BME280;2902;42.130;24.732;2023-09-07T06:34:53;100028.69;;;29.85;59.35
5755;BME280;2902;42.130;24.732;2023-09-07T06:37:19;100019.75;;;29.44;59.88
5755;BME280;2902;42.130;24.732;2023-09-07T06:39:46;100018.94;;;29.30;61.50
5755;BME280;2902;42.130;24.732;2023-09-07T06:42:13;100018.50;;;29.50;60.54
5755;BME280;2902;42.130;24.732;2023-09-07T06:44:41;100020.81;;;29.70;59.75
5755;BME280;2902;42.130;24.732;2023-09-07T06:47:08;100020.97;;;29.87;59.28
5755;BME280;2902;42.130;24.732;2023-09-07T06:49:37;100022.84;;;30.00;57.95
5755;BME280;2902;42.130;24.732;2023-09-07T06:52:04;100023.63;;;30.14;58.74
5755;BME280;2902;42.130;24.732;2023-09-07T06:54:31;100034.16;;;30.43;57.78
5755;BME280;2902;42.130;24.732;2023-09-07T06:56:57;100034.00;;;30.48;56.09
5755;BME280;2902;42.130;24.732;2023-09-07T06:59:24;100035.81;;;30.52;56.53
5755;BME280;2902;42.130;24.732;2023-09-07T07:01:51;100038.53;;;30.74;56.05
5755;BME280;2902;42.130;24.732;2023-09-07T07:04:17;100039.16;;;31.02;55.33
5755;BME280;2902;42.130;24.732;2023-09-07T07:06:45;100034.22;;;31.12;55.15
5755;BME280;2902;42.130;24.732;2023-09-07T07:09:12;100029.72;;;31.16;55.12
5755;BME280;2902;42.130;24.732;2023-09-07T07:11:39;100029.91;;;30.89;55.75
5755;BME280;2902;42.130;24.732;2023-09-07T07:14:06;100024.44;;;30.89;55.40
5755;BME280;2902;42.130;24.732;2023-09-07T07:16:34;100029.59;;;30.91;55.22
5755;BME280;2902;42.130;24.732;2023-09-07T07:19:00;100018.75;;;30.55;55.45
5755;BME280;2902;42.130;24.732;2023-09-07T07:21:27;100024.69;;;30.49;55.98
5755;BME280;2902;42.130;24.732;2023-09-07T07:23:55;100026.81;;;30.30;57.41
5755;BME280;2902;42.130;24.732;2023-09-07T07:26:22;100024.63;;;30.18;57.74
5755;BME280;2902;42.130;24.732;2023-09-07T07:28:48;100021.97;;;30.13;57.75
5755;BME280;2902;42.130;24.732;2023-09-07T07:31:15;100021.78;;;30.10;57.34
5755;BME280;2902;42.130;24.732;2023-09-07T07:33:42;100023.44;;;29.97;58.70
5755;BME280;2902;42.130;24.732;2023-09-07T07:36:08;100023.97;;;29.64;57.88
5755;BME280;2902;42.130;24.732;2023-09-07T07:38:36;100022.97;;;29.46;59.68
5755;BME280;2902;42.130;24.732;2023-09-07T07:41:04;100018.09;;;29.43;60.65
5755;BME280;2902;42.130;24.732;2023-09-07T07:43:32;100023.16;;;29.63;59.08
5755;BME280;2902;42.130;24.732;2023-09-07T07:45:59;100030.06;;;29.61;59.68
5755;BME280;2902;42.130;24.732;2023-09-07T07:48:25;100029.31;;;29.82;59.08
5755;BME280;2902;42.130;24.732;2023-09-07T07:50:54;100032.19;;;29.99;58.15
5755;BME280;2902;42.130;24.732;2023-09-07T07:53:20;100043.44;;;30.33;56.12
5755;BME280;2902;42.130;24.732;2023-09-07T07:55:47;100042.78;;;30.58;54.90
5755;BME280;2902;42.130;24.732;2023-09-07T07:58:15;100048.25;;;30.58;54.00
5755;BME280;2902;42.130;24.732;2023-09-07T08:00:42;100043.28;;;30.60;55.31
5755;BME280;2902;42.130;24.732;2023-09-07T08:03:12;100047.16;;;30.37;54.71
5755;BME280;2902;42.130;24.732;2023-09-07T08:05:39;100043.25;;;30.30;55.69
5755;BME280;2902;42.130;24.732;2023-09-07T08:08:06;100047.91;;;30.29;53.68
5755;BME280;2902;42.130;24.732;2023-09-07T08:10:33;100051.34;;;30.35;54.08
5755;BME280;2902;42.130;24.732;2023-09-07T08:13:02;100048.03;;;30.02;56.10
5755;BME280;2902;42.130;24.732;2023-09-07T08:15:31;100038.16;;;29.52;57.61
5755;BME280;2902;42.130;24.732;2023-09-07T08:17:59;100033.69;;;29.56;57.59
5755;BME280;2902;42.130;24.732;2023-09-07T08:20:26;100011.03;;;29.28;58.09
5755;BME280;2902;42.130;24.732;2023-09-07T08:22:54;100033.31;;;29.49;56.47
5755;BME280;2902;42.130;24.732;2023-09-07T08:25:21;100028.56;;;29.41;57.14
5755;BME280;2902;42.130;24.732;2023-09-07T08:27:48;100024.94;;;29.32;57.41
5755;BME280;2902;42.130;24.732;2023-09-07T08:30:16;100029.69;;;29.27;57.49
5755;BME280;2902;42.130;24.732;2023-09-07T08:32:45;100022.38;;;29.22;58.27
5755;BME280;2902;42.130;24.732;2023-09-07T08:35:12;100020.34;;;29.41;58.84
5755;BME280;2902;42.130;24.732;2023-09-07T08:37:40;100023.44;;;29.75;58.28
5755;BME280;2902;42.130;24.732;2023-09-07T08:40:08;100027.09;;;30.06;55.37
5755;BME280;2902;42.130;24.732;2023-09-07T08:42:36;100031.19;;;29.95;56.32
5755;BME280;2902;42.130;24.732;2023-09-07T08:45:04;100029.56;;;29.94;55.19
5755;BME280;2902;42.130;24.732;2023-09-07T08:47:33;100027.78;;;29.76;56.76
5755;BME280;2902;42.130;24.732;2023-09-07T08:50:03;100020.69;;;29.75;56.19
5755;BME280;2902;42.130;24.732;2023-09-07T08:52:31;100020.31;;;29.55;56.15
5755;BME280;2902;42.130;24.732;2023-09-07T08:54:58;100010.72;;;29.30;57.64
5755;BME280;2902;42.130;24.732;2023-09-07T08:57:27;100000.31;;;29.05;58.72
5755;BME280;2902;42.130;24.732;2023-09-07T08:59:56;99999.22;;;28.74;59.78
5755;BME280;2902;42.130;24.732;2023-09-07T09:02:22;100008.81;;;29.03;59.79
5755;BME280;2902;42.130;24.732;2023-09-07T09:04:50;99999.28;;;29.28;57.79
5755;BME280;2902;42.130;24.732;2023-09-07T09:07:19;100009.59;;;29.58;57.18
5755;BME280;2902;42.130;24.732;2023-09-07T09:09:46;100013.09;;;30.08;56.59
5755;BME280;2902;42.130;24.732;2023-09-07T09:12:13;100012.50;;;30.41;54.32
5755;BME280;2902;42.130;24.732;2023-09-07T09:14:42;100010.34;;;30.30;53.25
5755;BME280;2902;42.130;24.732;2023-09-07T09:17:11;100005.22;;;29.93;54.12
5755;BME280;2902;42.130;24.732;2023-09-07T09:19:39;99998.34;;;29.82;54.35
5755;BME280;2902;42.130;24.732;2023-09-07T09:22:06;99996.41;;;29.47;55.04
5755;BME280;2902;42.130;24.732;2023-09-07T09:24:34;99988.50;;;29.45;57.54
5755;BME280;2902;42.130;24.732;2023-09-07T09:27:01;99987.56;;;29.63;58.07
5755;BME280;2902;42.130;24.732;2023-09-07T09:29:29;99986.22;;;29.74;57.37
5755;BME280;2902;42.130;24.732;2023-09-07T09:31:56;99996.22;;;29.79;53.73
5755;BME280;2902;42.130;24.732;2023-09-07T09:34:23;99987.44;;;29.68;53.88
5755;BME280;2902;42.130;24.732;2023-09-07T09:36:50;99989.00;;;29.83;53.87
5755;BME280;2902;42.130;24.732;2023-09-07T09:39:23;99984.72;;;29.90;51.37
5755;BME280;2902;42.130;24.732;2023-09-07T09:41:52;99984.00;;;29.98;52.65
5755;BME280;2902;42.130;24.732;2023-09-07T09:44:21;99982.25;;;30.02;52.34
5755;BME280;2902;42.130;24.732;2023-09-07T09:46:51;99985.59;;;29.99;53.28
5755;BME280;2902;42.130;24.732;2023-09-07T09:49:20;99978.13;;;29.91;53.33
5755;BME280;2902;42.130;24.732;2023-09-07T09:51:48;99973.50;;;29.43;53.95
5755;BME280;2902;42.130;24.732;2023-09-07T09:54:16;99972.25;;;29.62;55.65
5755;BME280;2902;42.130;24.732;2023-09-07T09:56:43;99965.44;;;29.73;54.09
5755;BME280;2902;42.130;24.732;2023-09-07T09:59:13;99962.91;;;29.63;53.56
5755;BME280;2902;42.130;24.732;2023-09-07T10:01:44;99963.88;;;29.81;52.97
5755;BME280;2902;42.130;24.732;2023-09-07T10:04:13;99963.88;;;29.81;52.57
5755;BME280;2902;42.130;24.732;2023-09-07T10:06:50;99955.50;;;29.64;55.38
5755;BME280;2902;42.130;24.732;2023-09-07T10:09:18;99970.22;;;29.54;51.23
5755;BME280;2902;42.130;24.732;2023-09-07T10:11:51;99968.25;;;29.68;51.46
5755;BME280;2902;42.130;24.732;2023-09-07T10:14:20;99961.50;;;29.88;52.82
5755;BME280;2902;42.130;24.732;2023-09-07T10:16:48;99949.25;;;29.85;51.88
5755;BME280;2902;42.130;24.732;2023-09-07T10:19:17;99955.47;;;29.77;51.20
5755;BME280;2902;42.130;24.732;2023-09-07T10:21:45;99960.03;;;29.68;49.23
5755;BME280;2902;42.130;24.732;2023-09-07T10:24:23;99943.81;;;29.72;50.02
5755;BME280;2902;42.130;24.732;2023-09-07T10:26:56;99939.69;;;29.83;51.64
5755;BME280;2902;42.130;24.732;2023-09-07T10:29:24;99947.97;;;30.13;50.33
5755;BME280;2902;42.130;24.732;2023-09-07T10:31:51;99947.91;;;30.05;49.83
5755;BME280;2902;42.130;24.732;2023-09-07T10:34:18;99954.84;;;30.02;48.18
5755;BME280;2902;42.130;24.732;2023-09-07T10:36:46;99955.22;;;29.87;46.45
5755;BME280;2902;42.130;24.732;2023-09-07T10:39:13;99946.25;;;29.73;47.50
5755;BME280;2902;42.130;24.732;2023-09-07T10:41:41;99939.94;;;29.73;47.50
5755;BME280;2902;42.130;24.732;2023-09-07T10:44:09;99946.00;;;29.61;47.24
5755;BME280;2902;42.130;24.732;2023-09-07T10:46:39;99940.13;;;29.76;47.12
5755;BME280;2902;42.130;24.732;2023-09-07T10:49:07;99945.72;;;29.93;45.85
5755;BME280;2902;42.130;24.732;2023-09-07T10:51:40;99952.72;;;29.99;46.26
5755;BME280;2902;42.130;24.732;2023-09-07T10:54:14;99952.97;;;30.11;44.49
5755;BME280;2902;42.130;24.732;2023-09-07T10:56:43;99952.47;;;30.31;44.66
5755;BME280;2902;42.130;24.732;2023-09-07T10:59:11;99956.44;;;30.47;43.55
5755;BME280;2902;42.130;24.732;2023-09-07T11:01:39;99945.41;;;30.39;44.25
5755;BME280;2902;42.130;24.732;2023-09-07T11:04:06;99940.59;;;30.14;44.68
5755;BME280;2902;42.130;24.732;2023-09-07T11:06:36;99933.53;;;29.99;46.40
5755;BME280;2902;42.130;24.732;2023-09-07T11:09:04;99929.22;;;30.07;45.10
5755;BME280;2902;42.130;24.732;2023-09-07T11:11:34;99930.06;;;29.85;46.31
5755;BME280;2902;42.130;24.732;2023-09-07T11:14:02;99932.88;;;29.72;45.19
5755;BME280;2902;42.130;24.732;2023-09-07T11:16:29;99919.34;;;29.75;47.09
5755;BME280;2902;42.130;24.732;2023-09-07T11:18:57;99909.50;;;29.74;47.89
5755;BME280;2902;42.130;24.732;2023-09-07T11:21:25;99920.25;;;29.71;44.83
5755;BME280;2902;42.130;24.732;2023-09-07T11:23:52;99926.56;;;29.71;44.63
5755;BME280;2902;42.130;24.732;2023-09-07T11:26:20;99914.38;;;29.77;44.26
5755;BME280;2902;42.130;24.732;2023-09-07T11:28:47;99902.22;;;29.70;45.94
5755;BME280;2902;42.130;24.732;2023-09-07T11:31:18;99908.88;;;29.99;46.00
5755;BME280;2902;42.130;24.732;2023-09-07T11:33:46;99905.00;;;30.22;43.00
5755;BME280;2902;42.130;24.732;2023-09-07T11:36:14;99915.16;;;30.22;41.59
5755;BME280;2902;42.130;24.732;2023-09-07T11:38:43;99901.94;;;30.24;42.61
5755;BME280;2902;42.130;24.732;2023-09-07T11:41:11;99896.56;;;30.49;43.32
5755;BME280;2902;42.130;24.732;2023-09-07T11:43:38;99884.06;;;30.65;41.98
5755;BME280;2902;42.130;24.732;2023-09-07T11:46:05;99879.41;;;30.74;41.32
5755;BME280;2902;42.130;24.732;2023-09-07T11:48:32;99864.91;;;30.82;42.71
5755;BME280;2902;42.130;24.732;2023-09-07T11:51:00;99867.50;;;30.87;40.96
5755;BME280;2902;42.130;24.732;2023-09-07T11:53:28;99858.94;;;30.89;42.76
5755;BME280;2902;42.130;24.732;2023-09-07T11:55:56;99848.34;;;31.04;42.29
5755;BME280;2902;42.130;24.732;2023-09-07T11:58:24;99844.78;;;31.12;41.08
5755;BME280;2902;42.130;24.732;2023-09-07T12:00:52;99843.34;;;31.15;40.11
5755;BME280;2902;42.130;24.732;2023-09-07T12:03:19;99843.81;;;31.08;38.91
5755;BME280;2902;42.130;24.732;2023-09-07T12:05:45;99831.38;;;30.94;38.81
5755;BME280;2902;42.130;24.732;2023-09-07T12:08:12;99839.75;;;30.97;39.23
5755;BME280;2902;42.130;24.732;2023-09-07T12:10:41;99828.78;;;30.97;39.36
5755;BME280;2902;42.130;24.732;2023-09-07T12:13:08;99829.91;;;30.88;40.11
5755;BME280;2902;42.130;24.732;2023-09-07T12:15:35;99824.22;;;30.67;40.72
5755;BME280;2902;42.130;24.732;2023-09-07T12:18:02;99817.56;;;30.51;41.47
5755;BME280;2902;42.130;24.732;2023-09-07T12:20:29;99818.44;;;30.38;40.34
5755;BME280;2902;42.130;24.732;2023-09-07T12:22:55;99818.91;;;30.23;40.54
5755;BME280;2902;42.130;24.732;2023-09-07T12:25:22;99808.47;;;30.03;42.20
5755;BME280;2902;42.130;24.732;2023-09-07T12:27:50;99803.91;;;29.99;41.92
5755;BME280;2902;42.130;24.732;2023-09-07T12:30:18;99797.50;;;30.03;42.68
5755;BME280;2902;42.130;24.732;2023-09-07T12:32:46;99800.41;;;30.07;42.81
5755;BME280;2902;42.130;24.732;2023-09-07T12:35:13;99802.41;;;30.15;42.27
5755;BME280;2902;42.130;24.732;2023-09-07T12:37:40;99803.53;;;30.14;42.36
5755;BME280;2902;42.130;24.732;2023-09-07T12:40:08;99791.13;;;30.16;43.17
5755;BME280;2902;42.130;24.732;2023-09-07T12:42:38;99803.13;;;30.29;43.18
5755;BME280;2902;42.130;24.732;2023-09-07T12:45:08;99805.03;;;30.28;41.52
5755;BME280;2902;42.130;24.732;2023-09-07T12:47:36;99800.56;;;30.32;42.78
5755;BME280;2902;42.130;24.732;2023-09-07T12:50:04;99803.44;;;30.27;42.05
5755;BME280;2902;42.130;24.732;2023-09-07T12:52:32;99805.00;;;30.20;40.42
5755;BME280;2902;42.130;24.732;2023-09-07T12:55:00;99800.25;;;30.12;40.15
5755;BME280;2902;42.130;24.732;2023-09-07T12:57:27;99802.47;;;30.23;41.35
5755;BME280;2902;42.130;24.732;2023-09-07T12:59:54;99798.28;;;30.34;43.08
5755;BME280;2902;42.130;24.732;2023-09-07T13:02:22;99803.97;;;30.38;43.12
5755;BME280;2902;42.130;24.732;2023-09-07T13:04:49;99802.66;;;30.44;42.33
5755;BME280;2902;42.130;24.732;2023-09-07T13:07:16;99806.59;;;30.51;42.97
5755;BME280;2902;42.130;24.732;2023-09-07T13:09:43;99802.53;;;30.57;41.49